sensor_id;sensor_type;location;lat;lon;timestamp;P1;durP1;ratioP1;P2;durP2;ratioP2
27979;SDS011;15315;50.836;4.430;2022-12-18T00:07:10;102.55;;;38.58;;
27979;SDS011;15315;50.836;4.430;2022-12-18T00:17:10;90.50;;;34.20;;
27979;SDS011;15315;50.836;4.430;2022-12-18T00:27:10;94.00;;;36.85;;
27979;SDS011;15315;50.836;4.430;2022-12-18T00:37:11;85.03;;;34.35;;
27979;SDS011;15315;50.836;4.430;2022-12-18T00:47:11;68.65;;;29.27;;
27979;SDS011;15315;50.836;4.430;2022-12-18T00:57:11;76.72;;;28.83;;
27979;SDS011;15315;50.836;4.430;2022-12-18T01:07:12;63.50;;;27.65;;
27979;SDS011;15315;50.836;4.430;2022-12-18T01:17:12;72.13;;;27.88;;
27979;SDS011;15315;50.836;4.430;2022-12-18T01:27:13;71.63;;;27.35;;
27979;SDS011;15315;50.836;4.430;2022-12-18T01:37:13;69.43;;;27.25;;
27979;SDS011;15315;50.836;4.430;2022-12-18T01:47:20;73.63;;;27.60;;
27979;SDS011;15315;50.836;4.430;2022-12-18T01:57:24;87.85;;;30.52;;
27979;SDS011;15315;50.836;4.430;2022-12-18T02:07:30;71.82;;;28.13;;
27979;SDS011;15315;50.836;4.430;2022-12-18T02:17:47;79.85;;;29.45;;
27979;SDS011;15315;50.836;4.430;2022-12-18T02:27:52;82.68;;;29.42;;
27979;SDS011;15315;50.836;4.430;2022-12-18T02:37:54;66.15;;;26.02;;
27979;SDS011;15315;50.836;4.430;2022-12-18T02:47:56;62.15;;;25.40;;
27979;SDS011;15315;50.836;4.430;2022-12-18T02:57:58;59.70;;;23.73;;
27979;SDS011;15315;50.836;4.430;2022-12-18T03:08:03;59.15;;;24.15;;
27979;SDS011;15315;50.836;4.430;2022-12-18T03:18:09;55.25;;;22.75;;
27979;SDS011;15315;50.836;4.430;2022-12-18T03:28:14;41.08;;;18.08;;
27979;SDS011;15315;50.836;4.430;2022-12-18T03:38:19;43.65;;;18.23;;
27979;SDS011;15315;50.836;4.430;2022-12-18T03:58:28;46.03;;;19.23;;
27979;SDS011;15315;50.836;4.430;2022-12-18T04:08:33;43.20;;;18.02;;
27979;SDS011;15315;50.836;4.430;2022-12-18T04:18:35;43.78;;;18.38;;
27979;SDS011;15315;50.836;4.430;2022-12-18T04:28:36;37.05;;;16.83;;
27979;SDS011;15315;50.836;4.430;2022-12-18T04:38:36;44.95;;;18.45;;
27979;SDS011;15315;50.836;4.430;2022-12-18T04:48:36;37.45;;;16.73;;
27979;SDS011;15315;50.836;4.430;2022-12-18T04:58:37;42.38;;;17.00;;
27979;SDS011;15315;50.836;4.430;2022-12-18T05:08:39;37.58;;;15.48;;
27979;SDS011;15315;50.836;4.430;2022-12-18T05:18:39;38.17;;;15.52;;
27979;SDS011;15315;50.836;4.430;2022-12-18T05:28:40;29.85;;;12.93;;
27979;SDS011;15315;50.836;4.430;2022-12-18T05:38:40;40.20;;;14.02;;
27979;SDS011;15315;50.836;4.430;2022-12-18T05:48:41;30.60;;;13.73;;
27979;SDS011;15315;50.836;4.430;2022-12-18T05:58:42;32.60;;;13.38;;
27979;SDS011;15315;50.836;4.430;2022-12-18T06:08:43;27.92;;;12.63;;
27979;SDS011;15315;50.836;4.430;2022-12-18T06:18:44;30.77;;;13.43;;
27979;SDS011;15315;50.836;4.430;2022-12-18T06:28:45;36.05;;;13.45;;
27979;SDS011;15315;50.836;4.430;2022-12-18T06:38:45;33.15;;;12.80;;
27979;SDS011;15315;50.836;4.430;2022-12-18T06:48:46;29.67;;;12.38;;
27979;SDS011;15315;50.836;4.430;2022-12-18T06:58:50;24.07;;;10.77;;
27979;SDS011;15315;50.836;4.430;2022-12-18T07:08:50;28.50;;;12.25;;
27979;SDS011;15315;50.836;4.430;2022-12-18T07:18:52;28.75;;;11.88;;
27979;SDS011;15315;50.836;4.430;2022-12-18T07:28:55;28.67;;;12.83;;
27979;SDS011;15315;50.836;4.430;2022-12-18T07:38:57;23.37;;;11.10;;
27979;SDS011;15315;50.836;4.430;2022-12-18T07:48:57;24.45;;;10.38;;
27979;SDS011;15315;50.836;4.430;2022-12-18T07:58:58;23.92;;;9.68;;
27979;SDS011;15315;50.836;4.430;2022-12-18T08:08:59;14.85;;;7.65;;
27979;SDS011;15315;50.836;4.430;2022-12-18T08:18:59;14.27;;;6.88;;
27979;SDS011;15315;50.836;4.430;2022-12-18T08:29:00;13.60;;;6.63;;
27979;SDS011;15315;50.836;4.430;2022-12-18T08:39:00;14.82;;;6.80;;
27979;SDS011;15315;50.836;4.430;2022-12-18T08:49:01;14.68;;;7.03;;
27979;SDS011;15315;50.836;4.430;2022-12-18T08:59:01;12.05;;;6.68;;
27979;SDS011;15315;50.836;4.430;2022-12-18T09:09:03;15.23;;;7.00;;
27979;SDS011;15315;50.836;4.430;2022-12-18T09:19:04;14.70;;;6.93;;
27979;SDS011;15315;50.836;4.430;2022-12-18T09:29:05;14.20;;;7.45;;
27979;SDS011;15315;50.836;4.430;2022-12-18T09:39:07;15.88;;;7.53;;
27979;SDS011;15315;50.836;4.430;2022-12-18T09:49:10;18.90;;;8.60;;
27979;SDS011;15315;50.836;4.430;2022-12-18T09:59:35;21.02;;;8.95;;
27979;SDS011;15315;50.836;4.430;2022-12-18T10:09:49;18.67;;;8.70;;
27979;SDS011;15315;50.836;4.430;2022-12-18T10:30:24;18.13;;;9.20;;
27979;SDS011;15315;50.836;4.430;2022-12-18T10:40:25;21.00;;;10.00;;
27979;SDS011;15315;50.836;4.430;2022-12-18T10:50:32;20.75;;;9.07;;
27979;SDS011;15315;50.836;4.430;2022-12-18T11:00:34;20.90;;;10.63;;
27979;SDS011;15315;50.836;4.430;2022-12-18T11:10:38;20.30;;;11.18;;
27979;SDS011;15315;50.836;4.430;2022-12-18T11:20:40;21.85;;;11.05;;
27979;SDS011;15315;50.836;4.430;2022-12-18T11:30:41;23.67;;;10.95;;
27979;SDS011;15315;50.836;4.430;2022-12-18T11:40:42;20.77;;;11.25;;
27979;SDS011;15315;50.836;4.430;2022-12-18T11:50:50;25.10;;;12.38;;
27979;SDS011;15315;50.836;4.430;2022-12-18T12:00:56;25.17;;;12.52;;
27979;SDS011;15315;50.836;4.430;2022-12-18T12:41:40;26.95;;;11.63;;
27979;SDS011;15315;50.836;4.430;2022-12-18T12:52:06;21.92;;;11.75;;
27979;SDS011;15315;50.836;4.430;2022-12-18T13:02:18;28.08;;;12.82;;
27979;SDS011;15315;50.836;4.430;2022-12-18T13:12:23;28.20;;;13.10;;
27979;SDS011;15315;50.836;4.430;2022-12-18T13:22:48;27.20;;;12.00;;
27979;SDS011;15315;50.836;4.430;2022-12-18T13:32:57;26.50;;;12.65;;
27979;SDS011;15315;50.836;4.430;2022-12-18T13:53:21;28.42;;;14.85;;
27979;SDS011;15315;50.836;4.430;2022-12-18T14:03:25;31.23;;;15.52;;
27979;SDS011;15315;50.836;4.430;2022-12-18T14:13:31;35.03;;;16.40;;
27979;SDS011;15315;50.836;4.430;2022-12-18T14:33:37;32.83;;;16.17;;
27979;SDS011;15315;50.836;4.430;2022-12-18T14:43:42;35.38;;;17.33;;
27979;SDS011;15315;50.836;4.430;2022-12-18T14:53:45;37.30;;;17.15;;
27979;SDS011;15315;50.836;4.430;2022-12-18T15:03:53;35.65;;;17.35;;
27979;SDS011;15315;50.836;4.430;2022-12-18T15:13:54;38.00;;;18.02;;
27979;SDS011;15315;50.836;4.430;2022-12-18T15:23:57;37.45;;;17.90;;
27979;SDS011;15315;50.836;4.430;2022-12-18T15:43:59;35.95;;;16.73;;
27979;SDS011;15315;50.836;4.430;2022-12-18T15:54:02;41.00;;;17.90;;
27979;SDS011;15315;50.836;4.430;2022-12-18T16:04:04;33.42;;;15.75;;
27979;SDS011;15315;50.836;4.430;2022-12-18T16:24:15;34.95;;;15.88;;
27979;SDS011;15315;50.836;4.430;2022-12-18T16:34:24;36.70;;;16.50;;
27979;SDS011;15315;50.836;4.430;2022-12-18T16:44:27;34.33;;;15.40;;
27979;SDS011;15315;50.836;4.430;2022-12-18T16:54:28;34.28;;;15.70;;
27979;SDS011;15315;50.836;4.430;2022-12-18T17:14:33;35.35;;;15.35;;
27979;SDS011;15315;50.836;4.430;2022-12-18T17:24:34;33.95;;;15.23;;
27979;SDS011;15315;50.836;4.430;2022-12-18T17:34:34;38.73;;;15.87;;
27979;SDS011;15315;50.836;4.430;2022-12-18T17:44:36;37.75;;;16.70;;
27979;SDS011;15315;50.836;4.430;2022-12-18T17:54:36;37.88;;;16.30;;
27979;SDS011;15315;50.836;4.430;2022-12-18T18:04:38;40.85;;;17.20;;
27979;SDS011;15315;50.836;4.430;2022-12-18T18:14:39;38.63;;;16.88;;
27979;SDS011;15315;50.836;4.430;2022-12-18T18:24:39;38.38;;;17.27;;
27979;SDS011;15315;50.836;4.430;2022-12-18T18:34:40;36.97;;;17.13;;
27979;SDS011;15315;50.836;4.430;2022-12-18T18:44:40;52.28;;;19.83;;
27979;SDS011;15315;50.836;4.430;2022-12-18T18:54:41;42.67;;;18.45;;
27979;SDS011;15315;50.836;4.430;2022-12-18T19:04:42;38.08;;;18.55;;
27979;SDS011;15315;50.836;4.430;2022-12-18T19:14:43;37.63;;;17.67;;
27979;SDS011;15315;50.836;4.430;2022-12-18T19:24:43;38.17;;;17.20;;
27979;SDS011;15315;50.836;4.430;2022-12-18T19:34:44;40.78;;;18.40;;
27979;SDS011;15315;50.836;4.430;2022-12-18T19:44:44;42.30;;;17.38;;
27979;SDS011;15315;50.836;4.430;2022-12-18T19:54:44;49.45;;;20.25;;
27979;SDS011;15315;50.836;4.430;2022-12-18T20:04:46;44.10;;;19.55;;
27979;SDS011;15315;50.836;4.430;2022-12-18T20:14:47;44.38;;;18.98;;
27979;SDS011;15315;50.836;4.430;2022-12-18T20:24:48;44.20;;;19.45;;
27979;SDS011;15315;50.836;4.430;2022-12-18T20:34:49;42.03;;;18.63;;
27979;SDS011;15315;50.836;4.430;2022-12-18T20:44:49;40.95;;;18.50;;
27979;SDS011;15315;50.836;4.430;2022-12-18T20:54:49;39.30;;;17.88;;
27979;SDS011;15315;50.836;4.430;2022-12-18T21:04:50;42.85;;;19.10;;
27979;SDS011;15315;50.836;4.430;2022-12-18T21:14:52;44.35;;;17.60;;
27979;SDS011;15315;50.836;4.430;2022-12-18T21:24:52;44.35;;;19.45;;
27979;SDS011;15315;50.836;4.430;2022-12-18T21:34:53;40.22;;;19.13;;
27979;SDS011;15315;50.836;4.430;2022-12-18T21:44:53;35.17;;;16.23;;
27979;SDS011;15315;50.836;4.430;2022-12-18T21:54:54;42.92;;;18.77;;
27979;SDS011;15315;50.836;4.430;2022-12-18T22:04:55;40.85;;;16.90;;
27979;SDS011;15315;50.836;4.430;2022-12-18T22:14:55;37.95;;;17.40;;
27979;SDS011;15315;50.836;4.430;2022-12-18T22:24:55;35.20;;;16.15;;
27979;SDS011;15315;50.836;4.430;2022-12-18T22:34:56;39.20;;;16.05;;
27979;SDS011;15315;50.836;4.430;2022-12-18T22:44:57;36.40;;;15.60;;
27979;SDS011;15315;50.836;4.430;2022-12-18T22:54:59;36.83;;;14.98;;
27979;SDS011;15315;50.836;4.430;2022-12-18T23:04:59;38.13;;;16.55;;
27979;SDS011;15315;50.836;4.430;2022-12-18T23:15:00;36.20;;;16.33;;
27979;SDS011;15315;50.836;4.430;2022-12-18T23:25:00;36.22;;;15.38;;
27979;SDS011;15315;50.836;4.430;2022-12-18T23:35:00;32.55;;;14.48;;
27979;SDS011;15315;50.836;4.430;2022-12-18T23:45:01;31.70;;;14.65;;
27979;SDS011;15315;50.836;4.430;2022-12-18T23:55:01;30.25;;;14.18;;
